createdAt,value
2023-02-17T00:00:10.225Z,8
2023-02-17T00:03:10.025Z,8.1
2023-02-17T00:06:10.389Z,8.1
2023-02-17T00:09:09.943Z,8.1
2023-02-17T00:12:10.100Z,8.2
2023-02-17T00:15:10.051Z,8.3
2023-02-17T00:18:10.166Z,8.2
2023-02-17T00:21:09.955Z,8.2
2023-02-17T00:24:09.934Z,8.3
2023-02-17T00:27:10.001Z,8.3
2023-02-17T00:30:10.317Z,8.3
2023-02-17T00:33:10.019Z,8.3
2023-02-17T00:36:10.852Z,8.3
2023-02-17T00:39:09.954Z,8.3
2023-02-17T00:42:09.883Z,8.3
2023-02-17T00:45:10.016Z,8.3
2023-02-17T00:48:09.957Z,8.3
2023-02-17T00:51:09.957Z,8.2
2023-02-17T00:54:10.060Z,8.2
2023-02-17T00:57:09.885Z,8.2
2023-02-17T01:00:09.979Z,8.1
2023-02-17T01:03:09.967Z,8.2
2023-02-17T01:06:10.807Z,8.1
2023-02-17T01:09:09.970Z,8.1
2023-02-17T01:12:10.034Z,8.1
2023-02-17T01:15:10.073Z,8.1
2023-02-17T01:18:09.972Z,8.1
2023-02-17T01:21:09.908Z,8
2023-02-17T01:24:09.969Z,8
2023-02-17T01:27:09.976Z,8
2023-02-17T01:30:10.310Z,7.9
2023-02-17T01:33:09.966Z,8
2023-02-17T01:36:10.428Z,7.9
2023-02-17T01:39:10.044Z,8
2023-02-17T01:42:09.865Z,7.9
2023-02-17T01:45:09.971Z,8
2023-02-17T01:48:10.031Z,8
2023-02-17T01:51:09.885Z,8.1
2023-02-17T01:54:09.959Z,8.1
2023-02-17T01:57:09.950Z,8.1
2023-02-17T02:00:09.997Z,8.1
2023-02-17T02:03:10.309Z,8.1
2023-02-17T02:06:10.951Z,8
2023-02-17T02:09:09.954Z,8
2023-02-17T02:12:09.932Z,8.1
2023-02-17T02:15:10.085Z,8.1
2023-02-17T02:18:10.004Z,8.1
2023-02-17T02:21:09.940Z,8.1
2023-02-17T02:24:09.946Z,8
2023-02-17T02:27:09.990Z,8
2023-02-17T02:30:10.296Z,8
2023-02-17T02:33:09.960Z,8
2023-02-17T02:36:10.753Z,7.9
2023-02-17T02:39:09.925Z,8
2023-02-17T02:42:09.937Z,8
2023-02-17T02:45:09.957Z,8
2023-02-17T02:48:09.885Z,7.9
2023-02-17T02:51:09.958Z,7.9
2023-02-17T02:54:10.879Z,7.9
2023-02-17T02:57:10.020Z,8
2023-02-17T03:00:10.040Z,8
2023-02-17T03:03:09.985Z,8.1
2023-02-17T03:06:10.926Z,8.1
2023-02-17T03:09:09.930Z,8.1
2023-02-17T03:12:10.027Z,8.2
2023-02-17T03:15:10.322Z,8.2
2023-02-17T03:18:09.980Z,8.3
2023-02-17T03:21:09.970Z,8.3
2023-02-17T03:24:10.014Z,8.3
2023-02-17T03:27:09.936Z,8.3
2023-02-17T03:30:10.449Z,8.3
2023-02-17T03:33:10.000Z,8.3
2023-02-17T03:36:10.600Z,8.3
2023-02-17T03:39:10.176Z,8.3
2023-02-17T03:42:09.906Z,8.3
2023-02-17T03:45:10.014Z,8.3
2023-02-17T03:48:09.981Z,8.3
2023-02-17T03:51:09.967Z,8.3
2023-02-17T03:54:09.897Z,8.3
2023-02-17T03:57:10.061Z,8.4
2023-02-17T04:00:09.995Z,8.4
2023-02-17T04:03:10.041Z,8.4
2023-02-17T04:06:11.111Z,8.4
2023-02-17T04:09:09.996Z,8.4
2023-02-17T04:12:10.003Z,8.4
2023-02-17T04:15:09.930Z,8.4
2023-02-17T04:18:09.961Z,8.4
2023-02-17T04:21:09.901Z,8.4
2023-02-17T04:24:09.962Z,8.4
2023-02-17T04:27:09.926Z,8.4
2023-02-17T04:30:12.325Z,8.4
2023-02-17T04:33:09.977Z,8.4
2023-02-17T04:36:10.878Z,8.4
2023-02-17T04:39:09.953Z,8.5
2023-02-17T04:42:10.017Z,8.5
2023-02-17T04:45:10.020Z,8.4
2023-02-17T04:48:09.957Z,8.4
2023-02-17T04:51:10.063Z,8.4
2023-02-17T04:54:10.135Z,8.4
2023-02-17T04:57:09.999Z,8.4
2023-02-17T05:00:09.930Z,8.4
2023-02-17T05:03:10.065Z,8.5
2023-02-17T05:06:10.804Z,8.6
2023-02-17T05:09:09.983Z,8.6
2023-02-17T05:12:09.914Z,8.6
2023-02-17T05:15:09.999Z,8.6
2023-02-17T05:18:09.903Z,8.6
2023-02-17T05:21:09.924Z,8.6
2023-02-17T05:24:09.943Z,8.6
2023-02-17T05:27:09.995Z,8.6
2023-02-17T05:30:10.324Z,8.6
2023-02-17T05:33:09.975Z,8.6
2023-02-17T05:36:10.792Z,8.7
2023-02-17T05:39:09.924Z,8.7
2023-02-17T05:42:09.943Z,8.7
2023-02-17T05:45:09.956Z,8.7
2023-02-17T05:48:10.084Z,8.7
2023-02-17T05:51:09.996Z,8.7
2023-02-17T05:54:09.987Z,8.7
2023-02-17T05:57:09.913Z,8.7
2023-02-17T06:00:10.133Z,8.7
2023-02-17T06:03:10.211Z,8.7
2023-02-17T06:06:11.120Z,8.8
2023-02-17T06:09:09.983Z,8.8
2023-02-17T06:12:09.954Z,8.8
2023-02-17T06:15:09.999Z,8.8
2023-02-17T06:18:10.020Z,8.8
2023-02-17T06:21:09.886Z,8.9
2023-02-17T06:24:09.886Z,8.9
2023-02-17T06:27:09.998Z,8.9
2023-02-17T06:30:10.253Z,9
2023-02-17T06:33:10.118Z,9.1
2023-02-17T06:36:10.936Z,9.1
2023-02-17T06:39:10.004Z,9.1
2023-02-17T06:42:09.928Z,9.1
2023-02-17T06:45:10.020Z,9.2
2023-02-17T06:48:10.047Z,9.3
2023-02-17T06:51:10.097Z,9.3
2023-02-17T06:54:10.061Z,9.3
2023-02-17T06:57:10.175Z,9.3
2023-02-17T07:00:10.103Z,9.4
2023-02-17T07:03:11.019Z,9.4
2023-02-17T07:06:10.668Z,9.4
2023-02-17T07:09:09.979Z,9.5
2023-02-17T07:12:10.002Z,9.5
2023-02-17T07:15:14.008Z,9.6
2023-02-17T07:18:10.317Z,9.5
2023-02-17T07:21:10.034Z,9.5
2023-02-17T07:24:09.960Z,9.5
2023-02-17T07:27:12.932Z,9.6
2023-02-17T07:30:10.354Z,9.6
2023-02-17T07:33:13.245Z,9.6
2023-02-17T07:36:10.766Z,9.7
2023-02-17T07:39:10.003Z,9.7
2023-02-17T07:42:10.102Z,9.8
2023-02-17T07:45:10.049Z,9.8
2023-02-17T07:48:10.046Z,9.8
2023-02-17T07:51:10.064Z,9.9
2023-02-17T07:54:10.105Z,9.9
2023-02-17T07:57:10.052Z,10
2023-02-17T08:00:12.733Z,10.1
2023-02-17T08:03:10.018Z,10.1
2023-02-17T08:06:10.702Z,10.1
2023-02-17T08:09:10.033Z,10.1
2023-02-17T08:12:09.973Z,10.1
2023-02-17T08:15:10.143Z,10.2
2023-02-17T08:18:10.027Z,10.2
2023-02-17T08:21:11.083Z,10.3
2023-02-17T08:24:09.969Z,10.3
2023-02-17T08:27:10.743Z,10.3
2023-02-17T08:30:10.410Z,10.4
2023-02-17T08:33:10.193Z,10.4
2023-02-17T08:36:10.752Z,10.4
2023-02-17T08:39:09.990Z,10.4
2023-02-17T08:42:10.130Z,10.4
2023-02-17T08:45:09.998Z,10.4
2023-02-17T08:48:10.077Z,10.4
2023-02-17T08:51:10.193Z,10.4
2023-02-17T08:54:10.108Z,10.6
2023-02-17T08:57:10.150Z,10.6
2023-02-17T09:00:12.222Z,10.7
2023-02-17T09:03:10.251Z,10.7
2023-02-17T09:06:10.981Z,10.7
2023-02-17T09:09:10.195Z,10.8
2023-02-17T09:12:10.088Z,10.9
2023-02-17T09:15:10.277Z,10.9
2023-02-17T09:18:10.048Z,11
2023-02-17T09:21:10.107Z,11
2023-02-17T09:24:10.344Z,10.9
2023-02-17T09:27:10.122Z,11
2023-02-17T09:30:10.780Z,11
2023-02-17T09:33:10.407Z,11.1
2023-02-17T09:36:10.954Z,11.1
2023-02-17T09:39:13.080Z,11.1
2023-02-17T09:42:10.200Z,11.1
2023-02-17T09:45:11.921Z,11.1
2023-02-17T09:48:10.329Z,11.1
2023-02-17T09:51:12.464Z,11.1
2023-02-17T09:54:10.209Z,11.1
2023-02-17T09:57:10.248Z,11.2
2023-02-17T10:00:10.551Z,11.3
2023-02-17T10:03:12.675Z,11.3
2023-02-17T10:06:10.907Z,11.3
2023-02-17T10:09:12.562Z,11.4
2023-02-17T10:12:10.294Z,11.4
2023-02-17T10:15:13.053Z,11.4
2023-02-17T10:18:10.171Z,11.5
2023-02-17T10:21:12.591Z,11.6
2023-02-17T10:24:09.992Z,11.6
2023-02-17T10:27:10.291Z,11.7
2023-02-17T10:30:10.540Z,11.7
2023-02-17T10:33:10.122Z,11.7
2023-02-17T10:36:11.035Z,11.7
2023-02-17T10:39:10.090Z,11.7
2023-02-17T10:42:10.007Z,11.8
2023-02-17T10:45:10.512Z,11.8
2023-02-17T10:48:10.057Z,11.9
2023-02-17T10:51:09.982Z,11.9
2023-02-17T10:54:10.211Z,11.9
2023-02-17T10:57:10.133Z,11.9
2023-02-17T11:00:10.100Z,12
2023-02-17T11:03:10.052Z,12.1
2023-02-17T11:06:10.869Z,12.2
2023-02-17T11:09:09.979Z,12.2
2023-02-17T11:12:10.041Z,12.3
2023-02-17T11:15:09.993Z,12.4
2023-02-17T11:18:10.839Z,12.4
2023-02-17T11:21:10.281Z,12.7
2023-02-17T11:24:10.061Z,12.8
2023-02-17T11:27:10.241Z,13.1
2023-02-17T11:30:10.369Z,13.2
2023-02-17T11:33:10.113Z,13.1
2023-02-17T11:36:10.914Z,13.2
2023-02-17T11:39:09.941Z,13.1
2023-02-17T11:42:10.192Z,13.1
2023-02-17T11:45:10.130Z,13.3
2023-02-17T11:48:10.121Z,13.4
2023-02-17T11:51:10.002Z,13.6
2023-02-17T11:54:10.160Z,13.9
2023-02-17T11:57:10.025Z,14
2023-02-17T12:00:10.507Z,13.9
2023-02-17T12:03:10.398Z,14
2023-02-17T12:06:11.090Z,14.1
2023-02-17T12:09:10.059Z,14.1
2023-02-17T12:12:09.969Z,14.1
2023-02-17T12:15:10.044Z,14.1
2023-02-17T12:18:10.401Z,14
2023-02-17T12:21:09.962Z,13.9
2023-02-17T12:24:09.991Z,14
2023-02-17T12:27:10.652Z,13.9
2023-02-17T12:30:10.292Z,14
2023-02-17T12:33:10.056Z,14
2023-02-17T12:36:10.866Z,14
2023-02-17T12:39:10.044Z,14.1
2023-02-17T12:42:10.053Z,14.3
2023-02-17T12:45:10.101Z,14.5
2023-02-17T12:48:10.004Z,14.6
2023-02-17T12:51:10.104Z,14.7
2023-02-17T12:54:10.665Z,14.7
2023-02-17T12:57:10.009Z,14.7
2023-02-17T13:00:10.119Z,14.6
2023-02-17T13:03:10.141Z,14.6
2023-02-17T13:06:10.904Z,14.4
2023-02-17T13:09:09.999Z,14.3
2023-02-17T13:12:10.016Z,14.1
2023-02-17T13:15:10.100Z,13.9
2023-02-17T13:18:10.252Z,13.8
2023-02-17T13:21:10.194Z,13.8
2023-02-17T13:24:10.060Z,13.6
2023-02-17T13:27:10.033Z,13.6
2023-02-17T13:30:10.330Z,13.6
2023-02-17T13:33:10.112Z,13.6
2023-02-17T13:36:10.719Z,13.6
2023-02-17T13:39:10.087Z,13.6
2023-02-17T13:42:10.079Z,13.6
2023-02-17T13:45:10.088Z,13.6
2023-02-17T13:48:10.280Z,13.5
2023-02-17T13:51:09.974Z,13.5
2023-02-17T13:54:10.103Z,13.5
2023-02-17T13:57:09.987Z,13.4
2023-02-17T14:00:10.230Z,13.4
2023-02-17T14:03:10.086Z,13.3
2023-02-17T14:06:10.853Z,13.3
2023-02-17T14:09:09.996Z,13.2
2023-02-17T14:12:10.099Z,13
2023-02-17T14:15:09.968Z,12.8
2023-02-17T14:18:10.006Z,12.5
2023-02-17T14:21:11.220Z,12.2
2023-02-17T14:24:12.460Z,12.1
2023-02-17T14:27:09.951Z,12.1
2023-02-17T14:30:14.486Z,12.1
2023-02-17T14:33:10.219Z,12.2
2023-02-17T14:36:11.349Z,12.2
2023-02-17T14:39:10.020Z,12.2
2023-02-17T14:42:10.011Z,12.2
2023-02-17T14:45:10.116Z,12.2
2023-02-17T14:48:10.023Z,12.2
2023-02-17T14:51:10.086Z,12.2
2023-02-17T14:54:10.106Z,12.2
2023-02-17T14:57:10.307Z,12.2
2023-02-17T15:00:10.125Z,12.2
2023-02-17T15:03:10.396Z,12.1
2023-02-17T15:06:10.670Z,12.1
2023-02-17T15:09:10.136Z,12
2023-02-17T15:12:10.078Z,11.9
2023-02-17T15:15:10.037Z,11.9
2023-02-17T15:18:10.244Z,11.8
2023-02-17T15:21:09.973Z,11.7
2023-02-17T15:24:10.060Z,11.6
2023-02-17T15:27:09.981Z,11.4
2023-02-17T15:30:10.636Z,11.3
2023-02-17T15:33:09.938Z,11.1
2023-02-17T15:36:12.856Z,11
2023-02-17T15:39:10.058Z,10.9
2023-02-17T15:42:10.104Z,10.9
2023-02-17T15:45:09.980Z,10.9
2023-02-17T15:48:10.058Z,10.9
2023-02-17T15:51:10.047Z,11
2023-02-17T15:54:10.014Z,11
2023-02-17T15:57:09.997Z,11.1
2023-02-17T16:00:10.009Z,11
2023-02-17T16:03:10.357Z,11
2023-02-17T16:06:10.792Z,11
2023-02-17T16:09:10.036Z,11.1
2023-02-17T16:12:10.000Z,11.1
2023-02-17T16:15:10.193Z,11.1
2023-02-17T16:18:09.993Z,11.1
2023-02-17T16:21:10.018Z,11
2023-02-17T16:24:10.066Z,11
2023-02-17T16:27:09.981Z,11
2023-02-17T16:30:10.712Z,11
2023-02-17T16:33:10.099Z,11.1
2023-02-17T16:36:10.740Z,11.1
2023-02-17T16:39:09.971Z,11.1
2023-02-17T16:42:09.959Z,10.9
2023-02-17T16:45:10.009Z,10.9
2023-02-17T16:48:10.051Z,10.9
2023-02-17T16:51:10.057Z,10.9
2023-02-17T16:54:09.954Z,11
2023-02-17T16:57:10.214Z,11
2023-02-17T17:00:10.027Z,11
2023-02-17T17:03:10.094Z,10.9
2023-02-17T17:06:10.520Z,10.9
2023-02-17T17:09:10.135Z,10.9
2023-02-17T17:12:09.988Z,10.8
2023-02-17T17:15:09.911Z,10.7
2023-02-17T17:18:09.994Z,10.4
2023-02-17T17:21:09.960Z,10.4
2023-02-17T17:24:10.063Z,10.3
2023-02-17T17:27:09.974Z,10.3
2023-02-17T17:30:10.715Z,10.4
2023-02-17T17:33:09.986Z,10.4
2023-02-17T17:36:10.907Z,10.4
2023-02-17T17:39:09.954Z,10.3
2023-02-17T17:42:09.951Z,10.4
2023-02-17T17:45:09.975Z,10.6
2023-02-17T17:48:10.080Z,10.7
2023-02-17T17:51:10.043Z,10.7
2023-02-17T17:54:09.984Z,10.6
2023-02-17T17:57:10.041Z,10.7
2023-02-17T18:00:10.064Z,10.6
2023-02-17T18:03:10.084Z,10.8
2023-02-17T18:06:10.830Z,10.8
2023-02-17T18:09:10.865Z,10.9
2023-02-17T18:12:10.041Z,10.9
2023-02-17T18:15:10.094Z,11
2023-02-17T18:18:10.020Z,11
2023-02-17T18:21:10.063Z,10.9
2023-02-17T18:24:10.031Z,10.7
2023-02-17T18:27:09.957Z,10.5
2023-02-17T18:30:10.387Z,10.3
2023-02-17T18:33:10.038Z,10.3
2023-02-17T18:36:10.872Z,10.2
2023-02-17T18:39:10.079Z,10.3
2023-02-17T18:42:09.911Z,10.3
2023-02-17T18:45:09.990Z,10.3
2023-02-17T18:48:10.034Z,10.3
2023-02-17T18:51:10.127Z,10.3
2023-02-17T18:54:09.976Z,10.3
2023-02-17T18:57:09.992Z,10.3
2023-02-17T19:00:09.949Z,10.2
2023-02-17T19:03:10.085Z,10.1
2023-02-17T19:06:10.737Z,9.9
2023-02-17T19:09:09.987Z,9.9
2023-02-17T19:12:10.798Z,10
2023-02-17T19:15:09.915Z,9.9
2023-02-17T19:18:10.094Z,9.9
2023-02-17T19:21:09.941Z,9.9
2023-02-17T19:24:09.935Z,9.9
2023-02-17T19:27:09.913Z,9.9
2023-02-17T19:30:10.345Z,9.9
2023-02-17T19:33:09.968Z,9.8
2023-02-17T19:36:10.724Z,9.8
2023-02-17T19:39:09.984Z,9.7
2023-02-17T19:42:09.940Z,9.6
2023-02-17T19:45:09.905Z,9.4
2023-02-17T19:48:09.958Z,9.4
2023-02-17T19:51:10.012Z,9.3
2023-02-17T19:54:09.963Z,9.3
2023-02-17T19:57:10.119Z,9.2
2023-02-17T20:00:09.979Z,9.1
2023-02-17T20:03:10.255Z,9.1
2023-02-17T20:06:11.241Z,8.9
2023-02-17T20:09:10.027Z,8.8
2023-02-17T20:12:09.952Z,8.6
2023-02-17T20:15:10.010Z,8.6
2023-02-17T20:18:10.008Z,8.5
2023-02-17T20:21:09.937Z,8.4
2023-02-17T20:24:10.046Z,8.4
2023-02-17T20:27:09.966Z,8.3
2023-02-17T20:30:11.539Z,8.2
2023-02-17T20:33:10.647Z,8.3
2023-02-17T20:36:12.119Z,8.3
2023-02-17T20:39:10.949Z,8.3
2023-02-17T20:42:10.720Z,8.3
2023-02-17T20:45:10.932Z,8.3
2023-02-17T20:48:10.002Z,8.3
2023-02-17T20:51:09.947Z,8.2
2023-02-17T20:54:09.990Z,8.2
2023-02-17T20:57:10.038Z,8.1
2023-02-17T21:00:09.974Z,8
2023-02-17T21:03:10.431Z,8
2023-02-17T21:06:10.777Z,7.9
2023-02-17T21:09:10.018Z,7.9
2023-02-17T21:12:10.214Z,7.9
2023-02-17T21:15:10.000Z,7.9
2023-02-17T21:18:10.019Z,7.7
2023-02-17T21:21:09.995Z,7.8
2023-02-17T21:24:10.012Z,7.8
2023-02-17T21:27:09.982Z,7.7
2023-02-17T21:30:10.363Z,7.7
2023-02-17T21:33:10.212Z,7.7
2023-02-17T21:36:10.582Z,7.6
2023-02-17T21:39:09.948Z,7.6
2023-02-17T21:42:10.079Z,7.4
2023-02-17T21:45:10.140Z,7.5
2023-02-17T21:48:09.885Z,7.6
2023-02-17T21:51:09.970Z,7.5
2023-02-17T21:54:09.975Z,7.4
2023-02-17T21:57:13.172Z,7.4
2023-02-17T22:00:09.986Z,7.3
2023-02-17T22:03:09.964Z,7.4
2023-02-17T22:06:10.588Z,7.3
2023-02-17T22:09:09.951Z,7.3
2023-02-17T22:12:09.932Z,7.2
2023-02-17T22:15:41.690Z,7.4
2023-02-17T22:18:10.416Z,7.4
2023-02-17T22:21:09.878Z,7.4
2023-02-17T22:24:10.029Z,7.4
2023-02-17T22:27:10.081Z,7.4
2023-02-17T22:30:10.333Z,7.2
2023-02-17T22:33:10.056Z,7.2
2023-02-17T22:36:10.716Z,7.2
2023-02-17T22:39:09.935Z,7.2
2023-02-17T22:42:09.957Z,7.1
2023-02-17T22:45:09.933Z,7.1
2023-02-17T22:48:09.968Z,7
2023-02-17T22:51:10.012Z,7
2023-02-17T22:54:09.971Z,6.9
2023-02-17T22:57:10.000Z,7
2023-02-17T23:00:10.494Z,7
2023-02-17T23:03:10.118Z,6.9
2023-02-17T23:06:10.870Z,6.9
2023-02-17T23:09:10.025Z,6.9
2023-02-17T23:12:09.871Z,6.9
2023-02-17T23:15:09.990Z,6.9
2023-02-17T23:18:09.923Z,6.9
2023-02-17T23:21:10.006Z,7
2023-02-17T23:24:09.954Z,7
2023-02-17T23:27:09.934Z,6.9
2023-02-17T23:30:10.298Z,6.9
2023-02-17T23:33:10.027Z,6.9
2023-02-17T23:36:10.649Z,6.9
2023-02-17T23:39:09.962Z,6.9
2023-02-17T23:42:09.969Z,6.9
2023-02-17T23:45:09.917Z,6.9
2023-02-17T23:48:09.953Z,6.9
2023-02-17T23:51:09.965Z,6.7
2023-02-17T23:54:09.905Z,6.7
2023-02-17T23:57:09.973Z,6.7
